createdAt,value
2018-06-17T00:00:09.740Z,0
2018-06-17T00:00:51.212Z,0
2018-06-17T00:01:31.766Z,0
2018-06-17T00:02:12.308Z,0
2018-06-17T00:02:52.913Z,0
2018-06-17T00:03:33.463Z,0
2018-06-17T00:04:14.026Z,0
2018-06-17T00:04:54.591Z,0
2018-06-17T00:05:35.152Z,0
2018-06-17T00:06:15.739Z,0
2018-06-17T00:06:56.275Z,0
2018-06-17T00:07:36.824Z,0
2018-06-17T00:08:17.368Z,0
2018-06-17T00:08:57.943Z,0
2018-06-17T00:09:38.491Z,0
2018-06-17T00:10:19.060Z,0
2018-06-17T00:10:59.696Z,0
2018-06-17T00:11:40.227Z,0
2018-06-17T00:12:20.808Z,0
2018-06-17T00:13:01.343Z,0
2018-06-17T00:13:41.904Z,0
2018-06-17T00:14:22.484Z,0
2018-06-17T00:15:03.068Z,0
2018-06-17T00:15:43.630Z,0
2018-06-17T00:16:24.182Z,0
2018-06-17T00:17:04.767Z,0
2018-06-17T00:17:45.312Z,0
2018-06-17T00:18:25.884Z,0
2018-06-17T00:19:06.447Z,0
2018-06-17T00:19:47.039Z,0
2018-06-17T00:20:27.590Z,0
2018-06-17T00:21:08.136Z,0
2018-06-17T00:21:48.699Z,0
2018-06-17T00:22:29.297Z,0
2018-06-17T00:23:09.877Z,0
2018-06-17T00:23:50.441Z,0
2018-06-17T00:24:31.012Z,0
2018-06-17T00:25:11.611Z,0
2018-06-17T00:25:52.204Z,0
2018-06-17T00:26:32.770Z,0
2018-06-17T00:27:13.363Z,0
2018-06-17T00:27:53.936Z,0
2018-06-17T00:28:35.089Z,0
2018-06-17T00:29:15.665Z,0
2018-06-17T00:29:56.216Z,0
2018-06-17T00:30:36.856Z,0
2018-06-17T00:31:17.423Z,0
2018-06-17T00:31:57.988Z,0
2018-06-17T00:32:38.530Z,0
2018-06-17T00:33:19.091Z,0
2018-06-17T00:33:59.664Z,0
2018-06-17T00:34:40.230Z,0
2018-06-17T00:35:21.119Z,0
2018-06-17T00:36:01.690Z,0
2018-06-17T00:36:42.255Z,0
2018-06-17T00:37:22.808Z,0
2018-06-17T00:38:03.361Z,0
2018-06-17T00:38:43.935Z,0
2018-06-17T00:39:24.502Z,0
2018-06-17T00:40:05.046Z,0
2018-06-17T00:40:45.603Z,0
2018-06-17T00:41:26.173Z,0
2018-06-17T00:42:06.737Z,0
2018-06-17T00:42:47.314Z,0
2018-06-17T00:43:27.857Z,0
2018-06-17T00:44:08.479Z,0
2018-06-17T00:44:49.054Z,0
2018-06-17T00:45:29.631Z,0
2018-06-17T00:46:10.182Z,0
2018-06-17T00:46:50.752Z,0
2018-06-17T00:47:31.437Z,0
2018-06-17T00:48:12.032Z,0
2018-06-17T00:48:52.593Z,0
2018-06-17T00:49:33.167Z,0
2018-06-17T00:50:13.717Z,0
2018-06-17T00:50:54.318Z,0
2018-06-17T00:51:34.875Z,0
2018-06-17T00:52:15.688Z,0
2018-06-17T00:52:56.230Z,0
2018-06-17T00:53:36.827Z,0
2018-06-17T00:54:17.401Z,0
2018-06-17T00:54:57.953Z,0
2018-06-17T00:55:38.523Z,0
2018-06-17T00:56:19.091Z,0
2018-06-17T00:56:59.650Z,0
2018-06-17T00:57:40.285Z,0
2018-06-17T00:58:21.132Z,0
2018-06-17T00:59:01.809Z,0
2018-06-17T00:59:42.754Z,0
2018-06-17T01:00:23.331Z,0
2018-06-17T01:01:03.981Z,0
2018-06-17T01:01:45.477Z,0
2018-06-17T01:02:26.273Z,0
2018-06-17T01:03:07.169Z,0
2018-06-17T01:05:06.277Z,0
2018-06-17T01:05:46.821Z,0
2018-06-17T01:06:27.388Z,0
2018-06-17T01:07:07.959Z,0
2018-06-17T01:07:48.786Z,0
2018-06-17T01:08:30.792Z,0
2018-06-17T01:09:11.467Z,0
2018-06-17T01:09:52.166Z,0
2018-06-17T01:10:32.706Z,0
2018-06-17T01:11:13.357Z,0
2018-06-17T01:11:55.061Z,0
2018-06-17T01:12:35.768Z,0
2018-06-17T01:13:16.316Z,0
2018-06-17T01:13:57.310Z,0
2018-06-17T01:14:38.424Z,0
2018-06-17T01:15:18.984Z,0
2018-06-17T01:16:00.099Z,0
2018-06-17T01:16:40.713Z,0
2018-06-17T01:17:21.356Z,0
2018-06-17T01:18:02.060Z,0
2018-06-17T01:18:42.726Z,0
2018-06-17T01:19:23.457Z,0
2018-06-17T01:20:04.067Z,0
2018-06-17T01:20:44.776Z,0
2018-06-17T01:21:25.337Z,0
2018-06-17T01:22:05.910Z,0
2018-06-17T01:22:46.488Z,0
2018-06-17T01:23:27.118Z,0
2018-06-17T01:24:07.670Z,0
2018-06-17T01:24:48.242Z,0
2018-06-17T01:25:28.799Z,0
2018-06-17T01:26:09.348Z,0
2018-06-17T01:26:49.918Z,0
2018-06-17T01:27:30.478Z,0
2018-06-17T01:28:11.055Z,0
2018-06-17T01:28:51.643Z,0
2018-06-17T01:29:32.208Z,0
2018-06-17T01:30:12.755Z,0
2018-06-17T01:30:53.326Z,0
2018-06-17T01:31:33.884Z,0
2018-06-17T01:32:14.445Z,0
2018-06-17T01:32:54.998Z,0
2018-06-17T01:33:35.592Z,0
2018-06-17T01:34:16.157Z,0
2018-06-17T01:34:56.714Z,0
2018-06-17T01:35:37.275Z,0
2018-06-17T01:36:17.827Z,0
2018-06-17T01:36:58.399Z,0
2018-06-17T01:37:38.966Z,0
2018-06-17T01:38:19.518Z,0
2018-06-17T01:39:00.071Z,0
2018-06-17T01:39:40.719Z,0
2018-06-17T01:40:21.298Z,0
2018-06-17T01:41:01.850Z,0
2018-06-17T01:41:42.415Z,0
2018-06-17T01:42:22.976Z,0
2018-06-17T01:43:03.571Z,0
2018-06-17T01:43:44.115Z,0
2018-06-17T01:44:24.677Z,0
2018-06-17T01:45:05.242Z,0
2018-06-17T01:45:45.802Z,0
2018-06-17T01:46:26.355Z,0
2018-06-17T01:47:06.909Z,0
2018-06-17T01:47:47.454Z,0
2018-06-17T01:48:28.008Z,0
2018-06-17T01:49:08.584Z,0
2018-06-17T01:49:49.122Z,0
2018-06-17T01:50:29.689Z,0
2018-06-17T01:51:10.250Z,0
2018-06-17T01:51:50.818Z,0
2018-06-17T01:52:31.382Z,0
2018-06-17T01:53:11.955Z,0
2018-06-17T01:53:52.513Z,0
2018-06-17T01:54:33.066Z,0
2018-06-17T01:55:13.670Z,0
2018-06-17T01:55:54.221Z,0
2018-06-17T01:56:34.782Z,0
2018-06-17T01:57:15.354Z,0
2018-06-17T01:57:55.914Z,0
2018-06-17T01:58:36.801Z,0
2018-06-17T01:59:17.385Z,0
2018-06-17T01:59:57.927Z,0
2018-06-17T02:00:38.498Z,0
2018-06-17T02:01:19.125Z,4
2018-06-17T02:01:59.679Z,4
2018-06-17T02:02:40.242Z,4
2018-06-17T02:03:20.808Z,0
2018-06-17T02:04:01.373Z,0
2018-06-17T02:04:41.943Z,0
2018-06-17T02:05:22.510Z,0
2018-06-17T02:06:03.067Z,4
2018-06-17T02:06:43.618Z,4
2018-06-17T02:07:24.184Z,4
2018-06-17T02:08:04.745Z,4
2018-06-17T02:08:45.288Z,0
2018-06-17T02:09:26.625Z,4
2018-06-17T02:10:07.217Z,4
2018-06-17T02:10:47.768Z,4
2018-06-17T02:11:28.344Z,4
2018-06-17T02:12:08.936Z,4
2018-06-17T02:12:49.507Z,4
2018-06-17T02:13:30.075Z,4
2018-06-17T02:14:10.626Z,8
2018-06-17T02:14:51.199Z,4
2018-06-17T02:15:31.768Z,4
2018-06-17T02:16:12.334Z,8
2018-06-17T02:16:52.898Z,8
2018-06-17T02:17:33.436Z,8
2018-06-17T02:18:13.994Z,8
2018-06-17T02:18:54.569Z,8
2018-06-17T02:19:35.131Z,12
2018-06-17T02:20:15.674Z,8
2018-06-17T02:20:56.240Z,12
2018-06-17T02:21:36.817Z,12
2018-06-17T02:22:17.375Z,12
2018-06-17T02:22:57.940Z,16
2018-06-17T02:23:38.511Z,16
2018-06-17T02:24:19.095Z,16
2018-06-17T02:24:59.674Z,16
2018-06-17T02:25:40.225Z,20
2018-06-17T02:26:20.778Z,20
2018-06-17T02:27:01.336Z,20
2018-06-17T02:27:41.896Z,24
2018-06-17T02:28:22.448Z,24
2018-06-17T02:29:03.011Z,24
2018-06-17T02:29:43.574Z,28
2018-06-17T02:30:24.142Z,28
2018-06-17T02:31:04.709Z,32
2018-06-17T02:31:45.279Z,32
2018-06-17T02:32:25.833Z,36
2018-06-17T02:33:06.392Z,40
2018-06-17T02:33:46.998Z,44
2018-06-17T02:34:27.563Z,44
2018-06-17T02:35:08.123Z,44
2018-06-17T02:35:48.720Z,48
2018-06-17T02:36:29.282Z,48
2018-06-17T02:37:09.828Z,56
2018-06-17T02:37:50.377Z,60
2018-06-17T02:38:30.946Z,60
2018-06-17T02:39:11.512Z,64
2018-06-17T02:39:52.067Z,68
2018-06-17T02:40:32.636Z,68
2018-06-17T02:41:13.190Z,76
2018-06-17T02:41:53.755Z,76
2018-06-17T02:42:34.340Z,80
2018-06-17T02:43:14.895Z,84
2018-06-17T02:43:55.505Z,92
2018-06-17T02:44:36.103Z,92
2018-06-17T02:45:16.677Z,100
2018-06-17T02:45:57.320Z,104
2018-06-17T02:46:37.885Z,108
2018-06-17T02:47:18.456Z,112
2018-06-17T02:47:59.014Z,120
2018-06-17T02:48:39.575Z,128
2018-06-17T02:49:20.150Z,132
2018-06-17T02:50:00.716Z,140
2018-06-17T02:50:41.289Z,144
2018-06-17T02:51:21.859Z,152
2018-06-17T02:52:02.449Z,156
2018-06-17T02:52:43.223Z,168
2018-06-17T02:53:23.778Z,172
2018-06-17T02:54:04.407Z,180
2018-06-17T02:54:44.964Z,188
2018-06-17T02:55:25.535Z,196
2018-06-17T02:56:06.095Z,200
2018-06-17T02:56:46.658Z,212
2018-06-17T02:57:27.218Z,220
2018-06-17T02:58:07.794Z,228
2018-06-17T02:58:48.368Z,236
2018-06-17T02:59:28.972Z,244
2018-06-17T03:00:09.836Z,256
2018-06-17T03:00:50.392Z,264
2018-06-17T03:01:30.956Z,276
2018-06-17T03:02:11.539Z,284
2018-06-17T03:02:52.104Z,296
2018-06-17T03:03:32.661Z,304
2018-06-17T03:04:13.221Z,316
2018-06-17T03:04:53.777Z,328
2018-06-17T03:05:34.336Z,340
2018-06-17T03:06:14.887Z,352
2018-06-17T03:06:55.451Z,360
2018-06-17T03:07:36.010Z,372
2018-06-17T03:08:16.563Z,384
2018-06-17T03:08:57.131Z,396
2018-06-17T03:09:37.690Z,408
2018-06-17T03:10:18.253Z,420
2018-06-17T03:10:58.825Z,432
2018-06-17T03:11:39.383Z,444
2018-06-17T03:12:19.944Z,452
2018-06-17T03:13:00.509Z,468
2018-06-17T03:13:41.072Z,480
2018-06-17T03:14:21.614Z,496
2018-06-17T03:15:02.170Z,508
2018-06-17T03:15:42.763Z,520
2018-06-17T03:16:23.341Z,536
2018-06-17T03:17:03.904Z,548
2018-06-17T03:17:44.512Z,564
2018-06-17T03:18:25.059Z,576
2018-06-17T03:19:05.634Z,592
2018-06-17T03:19:46.190Z,608
2018-06-17T03:20:26.735Z,624
2018-06-17T03:21:07.311Z,640
2018-06-17T03:21:47.910Z,652
2018-06-17T03:22:28.465Z,672
2018-06-17T03:23:09.027Z,688
2018-06-17T03:23:49.595Z,704
2018-06-17T03:24:30.207Z,724
2018-06-17T03:25:10.765Z,736
2018-06-17T03:25:51.312Z,752
2018-06-17T03:26:31.868Z,772
2018-06-17T03:27:12.434Z,788
2018-06-17T03:27:52.975Z,804
2018-06-17T03:28:33.539Z,824
2018-06-17T03:29:14.083Z,848
2018-06-17T03:29:54.651Z,864
2018-06-17T03:30:35.205Z,884
2018-06-17T03:31:15.787Z,900
2018-06-17T03:31:56.369Z,916
2018-06-17T03:32:36.926Z,936
2018-06-17T03:33:17.465Z,960
2018-06-17T03:33:58.031Z,976
2018-06-17T03:34:38.602Z,1000
2018-06-17T03:35:19.158Z,1020
2018-06-17T03:35:59.743Z,1040
2018-06-17T03:36:40.337Z,1064
2018-06-17T03:37:20.878Z,1088
2018-06-17T03:38:01.451Z,1108
2018-06-17T03:38:42.016Z,1132
2018-06-17T03:39:22.565Z,1156
2018-06-17T03:40:03.111Z,1180
2018-06-17T03:40:43.696Z,1200
2018-06-17T03:41:24.245Z,1224
2018-06-17T03:42:04.841Z,1248
2018-06-17T03:42:45.390Z,1272
2018-06-17T03:43:25.945Z,1296
2018-06-17T03:44:06.510Z,1320
2018-06-17T03:44:47.064Z,1348
2018-06-17T03:45:27.656Z,1376
2018-06-17T03:46:08.243Z,1396
2018-06-17T03:46:48.807Z,1420
2018-06-17T03:47:29.376Z,1448
2018-06-17T03:48:09.962Z,1472
2018-06-17T03:48:50.606Z,1500
2018-06-17T03:49:31.168Z,1524
2018-06-17T03:50:11.739Z,1548
2018-06-17T03:50:52.299Z,1572
2018-06-17T03:51:32.883Z,1596
2018-06-17T03:52:13.447Z,1620
2018-06-17T03:52:53.999Z,1636
2018-06-17T03:53:34.572Z,1656
2018-06-17T03:54:15.131Z,1672
2018-06-17T03:54:55.700Z,1692
2018-06-17T03:55:36.261Z,1708
2018-06-17T03:56:16.831Z,1728
2018-06-17T03:56:57.441Z,1748
2018-06-17T03:57:38.011Z,1768
2018-06-17T03:58:18.565Z,1792
2018-06-17T03:58:59.137Z,1816
2018-06-17T03:59:39.665Z,1844
2018-06-17T04:00:20.236Z,1872
2018-06-17T04:01:00.805Z,1904
2018-06-17T04:01:41.367Z,1936
2018-06-17T04:02:21.920Z,1964
2018-06-17T04:03:02.480Z,1992
2018-06-17T04:03:43.050Z,2024
2018-06-17T04:04:23.621Z,2052
2018-06-17T04:05:04.177Z,2076
2018-06-17T04:05:44.752Z,2108
2018-06-17T04:06:25.324Z,2144
2018-06-17T04:07:05.958Z,2176
2018-06-17T04:07:46.501Z,2204
2018-06-17T04:08:27.087Z,2236
2018-06-17T04:09:07.646Z,2272
2018-06-17T04:09:48.203Z,2316
2018-06-17T04:10:28.779Z,2352
2018-06-17T04:11:09.355Z,2392
2018-06-17T04:11:49.943Z,2428
2018-06-17T04:12:30.513Z,2464
2018-06-17T04:13:11.072Z,2496
2018-06-17T04:13:51.644Z,2524
2018-06-17T04:14:32.232Z,2544
2018-06-17T04:15:12.784Z,2568
2018-06-17T04:15:53.362Z,2588
2018-06-17T04:16:33.916Z,2604
2018-06-17T04:17:14.471Z,2616
2018-06-17T04:17:55.090Z,2640
2018-06-17T04:18:35.656Z,2660
2018-06-17T04:19:16.216Z,2684
2018-06-17T04:19:56.765Z,2712
2018-06-17T04:20:37.341Z,2744
2018-06-17T04:21:18.543Z,2780
2018-06-17T04:21:59.099Z,2808
2018-06-17T04:22:39.656Z,2840
2018-06-17T04:23:20.246Z,2868
2018-06-17T04:24:00.795Z,2904
2018-06-17T04:24:41.369Z,2944
2018-06-17T04:25:21.936Z,2976
2018-06-17T04:26:02.511Z,3008
2018-06-17T04:26:43.076Z,3044
2018-06-17T04:27:23.649Z,3080
2018-06-17T04:28:04.234Z,3116
2018-06-17T04:28:44.793Z,3152
2018-06-17T04:29:25.343Z,3196
2018-06-17T04:30:05.882Z,3232
2018-06-17T04:30:46.525Z,3276
2018-06-17T04:31:27.065Z,3320
2018-06-17T04:32:07.629Z,3364
2018-06-17T04:32:48.187Z,3408
2018-06-17T04:33:28.737Z,3452
2018-06-17T04:34:09.299Z,3496
2018-06-17T04:34:49.880Z,3544
2018-06-17T04:35:30.445Z,3592
2018-06-17T04:36:11.045Z,3636
2018-06-17T04:36:51.631Z,3680
2018-06-17T04:37:32.198Z,3712
2018-06-17T04:38:12.784Z,3736
2018-06-17T04:38:53.360Z,3756
2018-06-17T04:39:33.899Z,3784
2018-06-17T04:40:14.465Z,3812
2018-06-17T04:40:55.055Z,3828
2018-06-17T04:41:35.659Z,3864
2018-06-17T04:42:16.184Z,3892
2018-06-17T04:42:56.734Z,3932
2018-06-17T04:43:37.285Z,3972
2018-06-17T04:44:17.837Z,4016
2018-06-17T04:44:58.395Z,4060
2018-06-17T04:45:38.966Z,4104
2018-06-17T04:46:19.541Z,4148
2018-06-17T04:47:00.115Z,4200
2018-06-17T04:47:40.673Z,4240
2018-06-17T04:48:21.255Z,4288
2018-06-17T04:49:01.813Z,4340
2018-06-17T04:49:42.378Z,4392
2018-06-17T04:50:22.950Z,4460
2018-06-17T04:51:03.605Z,4532
2018-06-17T04:51:44.168Z,4628
2018-06-17T04:52:24.733Z,4712
2018-06-17T04:53:05.281Z,4796
2018-06-17T04:53:45.850Z,4896
2018-06-17T04:54:26.402Z,5020
2018-06-17T04:55:06.954Z,5144
2018-06-17T04:55:47.541Z,5264
2018-06-17T04:56:28.109Z,5404
2018-06-17T04:57:08.682Z,5612
2018-06-17T04:57:49.254Z,5848
2018-06-17T04:58:29.812Z,6072
2018-06-17T04:59:10.404Z,6288
2018-06-17T04:59:50.965Z,6460
2018-06-17T05:00:31.526Z,6652
2018-06-17T05:01:12.090Z,6812
2018-06-17T05:01:52.665Z,6956
2018-06-17T05:02:33.223Z,7080
2018-06-17T05:03:13.784Z,7120
2018-06-17T05:03:54.355Z,6984
2018-06-17T05:04:34.926Z,6716
2018-06-17T05:05:15.488Z,6300
2018-06-17T05:05:56.065Z,5904
2018-06-17T05:06:36.650Z,5552
2018-06-17T05:07:17.195Z,5320
2018-06-17T05:07:57.746Z,4992
2018-06-17T05:08:38.316Z,4944
2018-06-17T05:09:18.867Z,4544
2018-06-17T05:09:59.442Z,4672
2018-06-17T05:10:40.005Z,4872
2018-06-17T05:11:20.553Z,5180
2018-06-17T05:12:01.111Z,5268
2018-06-17T05:12:41.653Z,5392
2018-06-17T05:13:22.202Z,5636
2018-06-17T05:14:02.778Z,5952
2018-06-17T05:14:43.325Z,6356
2018-06-17T05:15:23.900Z,6572
2018-06-17T05:16:04.543Z,6488
2018-06-17T05:16:45.104Z,6456
2018-06-17T05:17:25.656Z,6368
2018-06-17T05:18:06.225Z,6112
2018-06-17T05:18:46.803Z,6116
2018-06-17T05:19:27.370Z,6408
2018-06-17T05:20:07.936Z,6520
2018-06-17T05:20:48.520Z,6836
2018-06-17T05:21:29.104Z,6644
2018-06-17T05:22:09.765Z,6728
2018-06-17T05:22:50.320Z,6532
2018-06-17T05:23:31.030Z,7268
2018-06-17T05:24:11.581Z,7548
2018-06-17T05:24:52.145Z,9712
2018-06-17T05:25:32.706Z,7276
2018-06-17T05:26:13.261Z,34048
2018-06-17T05:26:53.822Z,37184
2018-06-17T05:27:34.378Z,41120
2018-06-17T05:28:14.943Z,7700
2018-06-17T05:28:55.494Z,32320
2018-06-17T05:29:36.112Z,52288
2018-06-17T05:30:16.690Z,47968
2018-06-17T05:30:57.585Z,7632
2018-06-17T05:31:38.239Z,7880
2018-06-17T05:32:18.767Z,51168
2018-06-17T05:32:59.292Z,56352
2018-06-17T05:33:39.855Z,57440
2018-06-17T05:34:20.466Z,58976
2018-06-17T05:35:01.039Z,55808
2018-06-17T05:35:41.602Z,53280
2018-06-17T05:36:22.228Z,53632
2018-06-17T05:37:02.769Z,52352
2018-06-17T05:37:43.319Z,56608
2018-06-17T05:38:23.978Z,59520
2018-06-17T05:39:04.547Z,60160
2018-06-17T05:39:45.085Z,60896
2018-06-17T05:40:25.965Z,62624
2018-06-17T05:41:06.631Z,62816
2018-06-17T05:41:47.294Z,63584
2018-06-17T05:42:27.835Z,62496
2018-06-17T05:43:08.608Z,62752
2018-06-17T05:43:52.947Z,63392
2018-06-17T05:44:34.619Z,62464
2018-06-17T05:45:15.209Z,63296
2018-06-17T05:45:55.833Z,61952
2018-06-17T05:46:36.415Z,61024
2018-06-17T05:47:16.968Z,59808
2018-06-17T05:47:57.515Z,60704
2018-06-17T05:48:38.089Z,63520
2018-06-17T05:49:18.765Z,64992
2018-06-17T05:49:59.419Z,64224
2018-06-17T05:50:39.972Z,62944
2018-06-17T05:51:20.528Z,63008
2018-06-17T05:52:01.098Z,64160
2018-06-17T05:52:41.723Z,64896
2018-06-17T05:53:22.268Z,65632
2018-06-17T05:54:02.822Z,64896
2018-06-17T05:54:43.439Z,64608
2018-06-17T05:55:24.011Z,66304
2018-06-17T05:56:04.581Z,67328
2018-06-17T05:56:45.130Z,67872
2018-06-17T05:57:25.921Z,68032
2018-06-17T05:58:07.035Z,67616
2018-06-17T05:58:50.123Z,68576
2018-06-17T05:59:31.215Z,68704
2018-06-17T06:00:12.131Z,68000
2018-06-17T06:00:53.130Z,68960
2018-06-17T06:01:33.924Z,69504
2018-06-17T06:02:14.558Z,70976
2018-06-17T06:02:55.178Z,70336
2018-06-17T06:03:35.712Z,70816
2018-06-17T06:04:16.286Z,71136
2018-06-17T06:04:56.837Z,72352
2018-06-17T06:05:37.400Z,71456
2018-06-17T06:06:18.346Z,69824
2018-06-17T06:06:59.238Z,68512
2018-06-17T06:07:40.099Z,67520
2018-06-17T06:08:20.650Z,67840
2018-06-17T06:09:01.428Z,69184
2018-06-17T06:09:42.313Z,71136
2018-06-17T06:10:22.899Z,72800
2018-06-17T06:11:03.524Z,73664
2018-06-17T06:11:44.061Z,75392
2018-06-17T06:12:24.629Z,76000
2018-06-17T06:13:05.192Z,75072
2018-06-17T06:13:45.779Z,74176
2018-06-17T06:14:26.382Z,73760
2018-06-17T06:15:06.968Z,75040
2018-06-17T06:15:47.829Z,75552
2018-06-17T06:16:28.494Z,75392
2018-06-17T06:17:09.052Z,75744
2018-06-17T06:17:50.273Z,75776
2018-06-17T06:18:31.204Z,75840
2018-06-17T06:19:11.997Z,75328
2018-06-17T06:19:52.824Z,76160
2018-06-17T06:20:33.477Z,75872
2018-06-17T06:21:14.025Z,76416
2018-06-17T06:21:54.749Z,75936
2018-06-17T06:22:35.477Z,74624
2018-06-17T06:23:17.678Z,73920
2018-06-17T06:23:58.621Z,73568
2018-06-17T06:24:39.323Z,75712
2018-06-17T06:25:19.865Z,78880
2018-06-17T06:26:00.740Z,81504
2018-06-17T06:26:41.374Z,82336
2018-06-17T06:27:21.907Z,81664
2018-06-17T06:28:02.961Z,79040
2018-06-17T06:28:43.551Z,77184
2018-06-17T06:29:24.361Z,76800
2018-06-17T06:30:05.383Z,76608
2018-06-17T06:30:46.076Z,76064
2018-06-17T06:31:26.917Z,76480
2018-06-17T06:32:07.805Z,76864
2018-06-17T06:32:48.364Z,77216
2018-06-17T06:33:29.865Z,77600
2018-06-17T06:34:10.857Z,76000
2018-06-17T06:34:51.669Z,73728
2018-06-17T06:35:32.514Z,72128
2018-06-17T06:36:13.922Z,73056
2018-06-17T06:36:54.522Z,76832
2018-06-17T06:37:35.078Z,78848
2018-06-17T06:38:15.793Z,78112
2018-06-17T06:38:56.883Z,75040
2018-06-17T06:39:37.857Z,74400
2018-06-17T06:40:18.594Z,75136
2018-06-17T06:40:59.263Z,76256
2018-06-17T06:41:39.861Z,75392
2018-06-17T06:42:20.575Z,72928
2018-06-17T06:43:01.815Z,71200
2018-06-17T06:43:42.477Z,69792
2018-06-17T06:44:23.251Z,68864
2018-06-17T06:45:04.058Z,69568
2018-06-17T06:45:44.839Z,70144
2018-06-17T06:46:25.572Z,69984
2018-06-17T06:47:06.658Z,67296
2018-06-17T06:47:47.409Z,64672
2018-06-17T06:48:28.013Z,67040
2018-06-17T06:49:08.584Z,70048
2018-06-17T06:49:49.191Z,73120
2018-06-17T06:50:30.284Z,73920
2018-06-17T06:51:11.315Z,74080
2018-06-17T06:51:52.032Z,73120
2018-06-17T06:52:33.125Z,71008
2018-06-17T06:53:14.181Z,68288
2018-06-17T06:53:55.122Z,67584
2018-06-17T06:54:35.981Z,69248
2018-06-17T06:55:16.602Z,70720
2018-06-17T06:55:57.140Z,72768
2018-06-17T06:56:37.722Z,74080
2018-06-17T06:57:18.269Z,73920
2018-06-17T06:57:58.977Z,73600
2018-06-17T06:58:39.522Z,73920
2018-06-17T06:59:20.126Z,74688
2018-06-17T07:00:00.728Z,75424
2018-06-17T07:00:41.765Z,75008
2018-06-17T07:01:22.625Z,72736
2018-06-17T07:02:03.383Z,70208
2018-06-17T07:02:43.956Z,71712
2018-06-17T07:03:24.541Z,74144
2018-06-17T07:04:05.159Z,76512
2018-06-17T07:04:45.765Z,75712
2018-06-17T07:05:26.379Z,73600
2018-06-17T07:06:06.966Z,73600
2018-06-17T07:06:47.546Z,76448
2018-06-17T07:07:28.218Z,77152
2018-06-17T07:08:09.017Z,71808
2018-06-17T07:08:49.596Z,64576
2018-06-17T07:09:30.270Z,60768
2018-06-17T07:10:10.890Z,67200
2018-06-17T07:10:51.559Z,69760
2018-06-17T07:11:32.185Z,72256
2018-06-17T07:12:12.976Z,73216
2018-06-17T07:12:53.532Z,73792
2018-06-17T07:13:34.166Z,72736
2018-06-17T07:14:14.855Z,71392
2018-06-17T07:14:55.513Z,71488
2018-06-17T07:15:36.063Z,71840
2018-06-17T07:16:16.696Z,71776
2018-06-17T07:16:57.269Z,70720
2018-06-17T07:17:37.861Z,67872
2018-06-17T07:18:18.543Z,65280
2018-06-17T07:18:59.114Z,64384
2018-06-17T07:19:39.677Z,63552
2018-06-17T07:20:20.293Z,64352
2018-06-17T07:21:00.806Z,67200
2018-06-17T07:21:41.434Z,71584
2018-06-17T07:22:22.112Z,74208
2018-06-17T07:23:02.784Z,72416
2018-06-17T07:23:43.939Z,69920
2018-06-17T07:24:24.766Z,70208
2018-06-17T07:25:05.539Z,71872
2018-06-17T07:25:46.091Z,73376
2018-06-17T07:26:26.639Z,73984
2018-06-17T07:27:07.196Z,74720
2018-06-17T07:27:47.815Z,74112
2018-06-17T07:28:28.357Z,75136
2018-06-17T07:29:08.917Z,76512
2018-06-17T07:29:49.476Z,76448
2018-06-17T07:30:30.031Z,74400
2018-06-17T07:31:10.584Z,73536
2018-06-17T07:31:51.211Z,72160
2018-06-17T07:32:31.912Z,72224
2018-06-17T07:33:12.529Z,73056
2018-06-17T07:33:53.112Z,74400
2018-06-17T07:34:33.654Z,75104
2018-06-17T07:35:14.232Z,75040
2018-06-17T07:35:54.826Z,72736
2018-06-17T07:36:35.395Z,70368
2018-06-17T07:37:16.007Z,71360
2018-06-17T07:37:56.634Z,73760
2018-06-17T07:38:37.843Z,74656
2018-06-17T07:39:18.825Z,72704
2018-06-17T07:39:59.447Z,72704
2018-06-17T07:40:40.695Z,70816
2018-06-17T07:41:21.670Z,72000
2018-06-17T07:42:02.684Z,71520
2018-06-17T07:42:43.668Z,72800
2018-06-17T07:43:24.320Z,73728
2018-06-17T07:44:05.498Z,74464
2018-06-17T07:44:46.449Z,74624
2018-06-17T07:45:28.177Z,76320
2018-06-17T07:46:09.421Z,77152
2018-06-17T07:46:50.081Z,78048
2018-06-17T07:47:31.708Z,77312
2018-06-17T07:48:13.573Z,77248
2018-06-17T07:48:54.810Z,78464
2018-06-17T07:49:36.007Z,81120
2018-06-17T07:50:16.995Z,83904
2018-06-17T07:50:57.673Z,83008
2018-06-17T07:51:38.949Z,80384
2018-06-17T07:52:19.674Z,77792
2018-06-17T07:53:00.533Z,76288
2018-06-17T07:53:41.450Z,76384
2018-06-17T07:54:22.461Z,75392
2018-06-17T07:55:03.419Z,75296
2018-06-17T07:55:44.437Z,74848
2018-06-17T07:56:25.963Z,73792
2018-06-17T07:57:07.102Z,71200
2018-06-17T07:57:48.318Z,68128
2018-06-17T07:58:29.494Z,65728
2018-06-17T07:59:10.163Z,66144
2018-06-17T07:59:51.105Z,62432
2018-06-17T08:00:32.222Z,48256
2018-06-17T08:01:13.366Z,31520
2018-06-17T08:01:54.083Z,19680
2018-06-17T08:02:36.383Z,18688
2018-06-17T08:03:17.270Z,18240
2018-06-17T08:03:58.616Z,17664
2018-06-17T08:04:39.367Z,17312
2018-06-17T08:05:20.132Z,17184
2018-06-17T08:06:00.831Z,17024
2018-06-17T08:06:41.673Z,16768
2018-06-17T08:07:22.343Z,16640
2018-06-17T08:08:03.689Z,16512
2018-06-17T08:08:44.563Z,16480
2018-06-17T08:09:25.256Z,16384
2018-06-17T08:10:06.635Z,16244
2018-06-17T08:10:47.804Z,16216
2018-06-17T08:11:29.505Z,16120
2018-06-17T08:12:10.680Z,15968
2018-06-17T08:12:51.708Z,15756
2018-06-17T08:13:32.886Z,15628
2018-06-17T08:14:13.699Z,15456
2018-06-17T08:14:54.570Z,15240
2018-06-17T08:15:35.537Z,15076
2018-06-17T08:16:16.844Z,14912
2018-06-17T08:16:57.809Z,14748
2018-06-17T08:17:38.276Z,14704
2018-06-17T08:18:19.063Z,14436
2018-06-17T08:18:59.920Z,13944
2018-06-17T08:19:40.777Z,14144
2018-06-17T08:20:21.771Z,14124
2018-06-17T08:21:02.621Z,12976
2018-06-17T08:21:43.286Z,14308
2018-06-17T08:22:24.004Z,13840
2018-06-17T08:23:04.921Z,14304
2018-06-17T08:23:45.746Z,12896
2018-06-17T08:24:26.722Z,12064
2018-06-17T08:25:07.489Z,12104
2018-06-17T08:25:48.375Z,12112
2018-06-17T08:26:28.902Z,12776
2018-06-17T08:27:09.720Z,13276
2018-06-17T08:27:50.612Z,14492
2018-06-17T08:28:31.358Z,15292
2018-06-17T08:29:12.351Z,15560
2018-06-17T08:29:53.411Z,15472
2018-06-17T08:30:34.306Z,15124
2018-06-17T08:31:15.076Z,14476
2018-06-17T08:31:56.107Z,13904
2018-06-17T08:32:37.110Z,12608
2018-06-17T08:33:17.732Z,11224
2018-06-17T08:33:58.652Z,11944
2018-06-17T08:34:39.862Z,12252
2018-06-17T08:35:20.941Z,12368
2018-06-17T08:36:01.659Z,12552
2018-06-17T08:36:42.600Z,12572
2018-06-17T08:37:23.501Z,12344
2018-06-17T08:38:04.123Z,11968
2018-06-17T08:38:44.926Z,11608
2018-06-17T08:39:26.189Z,11332
2018-06-17T08:40:06.723Z,11072
2018-06-17T08:40:47.343Z,10840
2018-06-17T08:41:28.225Z,10628
2018-06-17T08:42:09.119Z,9940
2018-06-17T08:42:50.010Z,10368
2018-06-17T08:43:31.108Z,10796
2018-06-17T08:44:11.929Z,10752
2018-06-17T08:44:52.636Z,10996
2018-06-17T08:45:33.561Z,10976
2018-06-17T08:46:14.123Z,10996
2018-06-17T08:46:54.972Z,10436
2018-06-17T08:47:35.852Z,10924
2018-06-17T08:48:16.520Z,11232
2018-06-17T08:48:57.437Z,11388
2018-06-17T08:51:26.537Z,11472
2018-06-17T08:52:07.151Z,11396
2018-06-17T08:52:47.998Z,10552
2018-06-17T08:53:28.829Z,10880
2018-06-17T08:54:09.932Z,9720
2018-06-17T08:54:50.877Z,10344
2018-06-17T08:55:32.076Z,9656
2018-06-17T08:56:12.825Z,9764
2018-06-17T08:56:53.753Z,10048
2018-06-17T08:57:35.743Z,10076
2018-06-17T08:58:16.616Z,10300
2018-06-17T08:58:57.263Z,10460
2018-06-17T08:59:38.285Z,11352
2018-06-17T09:00:19.201Z,10772
2018-06-17T09:01:00.091Z,11548
2018-06-17T09:01:41.278Z,11252
2018-06-17T09:02:22.474Z,11504
2018-06-17T09:03:03.183Z,11836
2018-06-17T09:03:44.410Z,11628
2018-06-17T09:04:24.769Z,12228
2018-06-17T09:05:05.926Z,12048
2018-06-17T09:05:46.873Z,12740
2018-06-17T09:06:28.118Z,12340
2018-06-17T09:07:08.992Z,11928
2018-06-17T09:07:49.887Z,10960
2018-06-17T09:08:30.912Z,10548
2018-06-17T09:09:11.740Z,10192
2018-06-17T09:09:52.429Z,11212
2018-06-17T09:10:33.638Z,11216
2018-06-17T09:11:14.515Z,11548
2018-06-17T09:11:55.664Z,12048
2018-06-17T09:12:37.062Z,12032
2018-06-17T09:13:17.545Z,11640
2018-06-17T09:13:58.565Z,11212